Time;durP1;ratioP1;P1;durP2;ratioP2;P2;SDS_P1;SDS_P2;PMS_P1;PMS_P2;Temp;Humidity;BMP_temperature;BMP_pressure;BME280_temperature;BME280_humidity;BME280_pressure;Samples;Min_cycle;Max_cycle;Signal;HPM_P1;HPM_P2
2023/05/27 00:02:11;;;;;;;15.02;2.60;;;10.60;99.90;;;;;;5092983;28;20052;-85
2023/05/27 00:04:57;;;;;;;15.77;2.95;;;10.50;99.90;;;;;;5091846;28;20134;-84
2023/05/27 00:07:43;;;;;;;9.60;2.13;;;10.60;99.90;;;;;;5092492;28;20488;-84
2023/05/27 00:10:29;;;;;;;18.77;3.13;;;10.60;99.90;;;;;;5092283;28;20052;-85
2023/05/27 00:13:16;;;;;;;14.93;2.72;;;10.50;99.90;;;;;;5092431;28;20082;-85
2023/05/27 00:16:02;;;;;;;15.50;2.90;;;10.60;99.90;;;;;;5092229;28;20063;-85
2023/05/27 00:18:48;;;;;;;12.63;2.53;;;10.60;99.90;;;;;;5091514;28;20044;-84
2023/05/27 00:21:35;;;;;;;22.02;3.17;;;10.60;99.90;;;;;;5091790;28;20040;-85
2023/05/27 00:24:21;;;;;;;15.88;2.60;;;10.50;99.90;;;;;;5090581;28;20071;-84
2023/05/27 00:27:09;;;;;;;10.98;3.63;;;10.50;99.90;;;;;;5073009;28;20044;-83
2023/05/27 00:29:55;;;;;;;13.35;2.60;;;10.50;99.90;;;;;;5059628;28;20060;-85
2023/05/27 00:32:41;;;;;;;14.63;2.88;;;10.50;99.90;;;;;;5090575;28;20055;-85
2023/05/27 00:35:28;;;;;;;11.65;2.75;;;10.50;99.90;;;;;;5074574;28;20055;-84
2023/05/27 00:38:14;;;;;;;14.82;3.50;;;10.50;99.90;;;;;;5073406;28;20446;-85
2023/05/27 00:41:02;;;;;;;15.48;3.00;;;10.50;99.90;;;;;;5092086;28;20075;-86
2023/05/27 00:43:49;;;;;;;15.23;3.20;;;10.60;99.90;;;;;;5073862;28;20059;-84
2023/05/27 00:46:35;;;;;;;12.48;3.25;;;10.60;99.90;;;;;;5073443;28;20052;-84
2023/05/27 00:49:25;;;;;;;17.48;2.67;;;10.60;99.90;;;;;;5073258;28;20052;-86
2023/05/27 00:52:13;;;;;;;10.52;3.58;;;10.60;99.90;;;;;;5073506;28;20625;-85
2023/05/27 00:54:59;;;;;;;12.48;2.80;;;10.60;99.90;;;;;;5073737;28;20384;-85
2023/05/27 00:57:45;;;;;;;12.63;3.20;;;10.70;99.90;;;;;;5073428;28;20048;-84
2023/05/27 01:00:31;;;;;;;12.63;2.63;;;10.70;99.90;;;;;;5074788;28;20047;-84
2023/05/27 01:03:20;;;;;;;20.35;3.38;;;10.70;99.90;;;;;;5090729;28;20051;-85
2023/05/27 01:06:24;;;;;;;15.23;3.25;;;10.80;99.90;;;;;;5090994;28;20063;-84
2023/05/27 01:09:35;;;;;;;13.75;2.90;;;10.80;99.90;;;;;;5091310;28;20139;-83
2023/05/27 01:12:30;;;;;;;17.30;2.40;;;10.80;99.90;;;;;;5090968;28;20084;-84
2023/05/27 01:15:18;;;;;;;;;;;10.80;99.90;;;;;;5091614;28;20423;-84
2023/05/27 01:18:04;;;;;;;15.45;2.88;;;10.80;99.90;;;;;;5073108;28;19924;-83
2023/05/27 01:20:51;;;;;;;13.00;3.13;;;10.80;99.90;;;;;;5073514;28;20044;-84
2023/05/27 01:23:40;;;;;;;13.63;2.80;;;10.80;99.90;;;;;;5091437;28;20138;-83
2023/05/27 01:26:26;;;;;;;12.10;2.60;;;10.90;99.90;;;;;;5090413;28;20052;-84
2023/05/27 01:29:12;;;;;;;13.85;3.08;;;10.90;99.90;;;;;;5072417;28;20060;-83
2023/05/27 01:32:30;;;;;;;16.60;2.92;;;10.90;99.90;;;;;;5069895;28;20048;-82
2023/05/27 01:35:17;;;;;;;21.67;2.72;;;10.90;99.90;;;;;;5052196;28;20469;-85
2023/05/27 01:38:08;;;;;;;15.02;2.78;;;10.90;99.90;;;;;;5052407;28;20493;-85
2023/05/27 01:40:56;;;;;;;14.23;2.60;;;11.00;99.90;;;;;;5070238;28;20079;-83
2023/05/27 01:43:43;;;;;;;11.65;2.67;;;10.90;99.90;;;;;;5053185;28;20145;-84
2023/05/27 01:46:30;;;;;;;17.73;3.95;;;10.90;99.90;;;;;;5069640;28;20542;-83
2023/05/27 01:49:16;;;;;;;13.40;3.40;;;10.90;99.90;;;;;;5053225;28;20044;-84
2023/05/27 01:52:02;;;;;;;11.27;2.90;;;10.90;99.90;;;;;;5052310;28;20056;-83
2023/05/27 01:54:48;;;;;;;10.95;2.92;;;10.90;99.90;;;;;;5055341;28;20135;-85
2023/05/27 01:57:34;;;;;;;23.88;3.80;;;10.90;99.90;;;;;;5068320;28;20091;-86
2023/05/27 02:00:20;;;;;;;15.75;3.17;;;10.90;99.90;;;;;;5052368;28;20504;-85
2023/05/27 02:03:07;;;;;;;11.50;3.05;;;10.90;99.90;;;;;;5052032;28;20054;-83
2023/05/27 02:05:53;;;;;;;13.18;2.92;;;10.90;99.90;;;;;;5070907;28;20090;-85
2023/05/27 02:08:39;;;;;;;14.35;2.60;;;10.90;99.90;;;;;;5052143;28;20048;-84
2023/05/27 02:11:26;;;;;;;17.42;4.22;;;10.80;99.90;;;;;;5051150;28;20056;-84
2023/05/27 02:14:13;;;;;;;10.80;2.85;;;10.80;99.90;;;;;;5069220;28;20048;-84
2023/05/27 02:16:59;;;;;;;15.18;3.22;;;10.80;99.90;;;;;;5070176;28;20049;-86
2023/05/27 02:19:45;;;;;;;16.70;2.85;;;10.80;99.90;;;;;;5069915;28;20071;-84
2023/05/27 02:22:31;;;;;;;19.35;3.30;;;10.80;99.90;;;;;;5069481;28;20052;-85
2023/05/27 02:25:18;;;;;;;20.40;4.18;;;10.70;99.90;;;;;;5069952;28;20056;-83
2023/05/27 02:28:04;;;;;;;12.35;3.15;;;10.70;99.90;;;;;;5070171;28;20048;-84
2023/05/27 02:30:50;;;;;;;10.93;2.40;;;10.70;99.90;;;;;;5067585;28;20107;-84
2023/05/27 02:33:36;;;;;;;18.58;3.38;;;10.60;99.90;;;;;;5089708;28;20392;-85
2023/05/27 02:36:23;;;;;;;17.42;3.47;;;10.60;99.90;;;;;;5089915;28;20075;-84
2023/05/27 02:39:10;;;;;;;16.20;3.53;;;10.60;99.90;;;;;;5089412;28;20105;-85
2023/05/27 02:41:56;;;;;;;18.10;3.20;;;10.60;99.90;;;;;;5072662;28;20060;-83
2023/05/27 02:44:42;;;;;;;12.95;3.55;;;10.60;99.90;;;;;;5090166;28;20127;-83
2023/05/27 02:47:29;;;;;;;12.98;3.17;;;10.50;99.90;;;;;;5088097;28;20415;-85
2023/05/27 02:50:15;;;;;;;19.80;3.63;;;10.50;99.90;;;;;;5089982;28;20051;-86
2023/05/27 02:53:01;;;;;;;19.88;3.40;;;10.60;99.90;;;;;;5088593;28;20494;-84
2023/05/27 02:55:47;;;;;;;14.43;3.33;;;10.60;99.90;;;;;;5089965;28;20089;-84
2023/05/27 02:58:33;;;;;;;11.43;2.20;;;10.60;99.90;;;;;;5070985;28;20070;-83
2023/05/27 03:01:19;;;;;;;12.18;3.40;;;10.60;99.90;;;;;;5089835;28;20051;-82
2023/05/27 03:04:05;;;;;;;14.73;2.80;;;10.70;99.90;;;;;;5071909;28;20113;-83
2023/05/27 03:06:52;;;;;;;9.02;2.25;;;10.60;99.90;;;;;;5090207;28;20048;-82
2023/05/27 03:09:38;;;;;;;16.10;3.40;;;10.70;99.90;;;;;;5089412;28;20060;-82
2023/05/27 03:12:24;;;;;;;13.45;3.08;;;10.70;99.90;;;;;;5090529;28;20140;-83
2023/05/27 03:15:10;;;;;;;15.77;2.67;;;10.70;99.90;;;;;;5089613;28;20055;-83
2023/05/27 03:17:57;;;;;;;16.23;3.30;;;10.70;99.90;;;;;;5072664;28;20086;-83
2023/05/27 03:20:44;;;;;;;21.17;3.95;;;10.70;99.90;;;;;;5071647;28;20052;-82
2023/05/27 03:23:30;;;;;;;12.95;3.08;;;10.70;99.90;;;;;;5089262;28;20483;-83
2023/05/27 03:26:16;;;;;;;13.85;3.05;;;10.60;99.90;;;;;;5071550;28;20048;-82
2023/05/27 03:29:02;;;;;;;16.13;3.50;;;10.60;99.90;;;;;;5089726;28;20048;-81
2023/05/27 03:31:48;;;;;;;13.85;4.82;;;10.60;99.90;;;;;;5089835;28;20441;-81
2023/05/27 03:34:34;;;;;;;14.07;3.47;;;10.60;99.90;;;;;;5089641;28;20052;-82
2023/05/27 03:37:20;;;;;;;17.92;3.50;;;10.50;99.90;;;;;;5089601;28;20086;-83
2023/05/27 03:40:08;;;;;;;12.75;3.38;;;10.50;99.90;;;;;;5073902;28;20073;-84
2023/05/27 03:42:55;;;;;;;12.30;3.60;;;10.50;99.90;;;;;;5077700;28;20144;-83
2023/05/27 03:45:41;;;;;;;18.45;3.20;;;10.50;99.90;;;;;;5092372;28;20044;-82
2023/05/27 03:48:27;;;;;;;14.27;3.40;;;10.50;99.90;;;;;;5073846;28;20156;-81
2023/05/27 03:51:13;;;;;;;11.55;3.67;;;10.40;99.90;;;;;;5088146;28;20048;-81
2023/05/27 03:53:59;;;;;;;14.02;3.85;;;10.40;99.90;;;;;;5089788;28;20036;-82
2023/05/27 03:56:45;;;;;;;14.77;4.32;;;10.40;99.90;;;;;;5093297;28;20060;-81
2023/05/27 03:59:32;;;;;;;17.75;3.53;;;10.40;99.90;;;;;;5074600;28;20124;-82
2023/05/27 04:02:18;;;;;;;20.63;3.65;;;10.50;99.90;;;;;;5074715;28;20496;-81
2023/05/27 04:05:04;;;;;;;18.75;4.20;;;10.40;99.90;;;;;;5074528;28;20052;-82
2023/05/27 04:07:51;;;;;;;16.98;3.05;;;10.40;99.90;;;;;;5074290;28;20135;-82
2023/05/27 04:10:37;;;;;;;14.77;3.70;;;10.40;99.90;;;;;;5090913;28;20450;-82
2023/05/27 04:13:23;;;;;;;13.80;3.95;;;10.40;99.90;;;;;;5073965;28;20052;-81
2023/05/27 04:16:10;;;;;;;17.58;3.10;;;10.40;99.90;;;;;;5092328;28;20059;-82
2023/05/27 04:18:56;;;;;;;20.88;4.60;;;10.40;99.90;;;;;;5090820;28;20063;-82
2023/05/27 04:21:42;;;;;;;12.88;3.20;;;10.40;99.90;;;;;;5093000;28;20070;-82
2023/05/27 04:24:28;;;;;;;16.85;4.00;;;10.40;99.90;;;;;;5093027;28;20051;-83
2023/05/27 04:27:16;;;;;;;11.57;3.40;;;10.40;99.90;;;;;;5092408;28;20122;-82
2023/05/27 04:30:05;;;;;;;14.45;3.92;;;10.60;99.90;;;;;;5091353;28;20472;-81
2023/05/27 04:32:52;;;;;;;15.50;4.05;;;10.60;99.90;;;;;;5073970;28;20511;-82
2023/05/27 04:35:40;;;;;;;18.20;4.75;;;10.60;99.90;;;;;;5090835;28;20048;-82
2023/05/27 04:38:26;;;;;;;13.07;4.28;;;10.70;99.90;;;;;;5091902;28;20054;-82
2023/05/27 04:41:12;;;;;;;17.02;4.65;;;10.70;99.90;;;;;;5091801;28;20052;-81
2023/05/27 04:44:02;;;;;;;12.98;3.67;;;10.80;99.90;;;;;;5092131;28;20048;-84
2023/05/27 04:46:48;;;;;;;14.77;3.70;;;10.80;99.90;;;;;;5090854;28;20423;-82
2023/05/27 04:49:34;;;;;;;15.63;4.05;;;10.90;99.90;;;;;;5073422;28;20039;-82
2023/05/27 04:52:23;;;;;;;14.98;3.45;;;10.90;99.90;;;;;;5090425;28;20056;-82
2023/05/27 04:55:10;;;;;;;21.52;3.95;;;11.00;99.90;;;;;;5073215;28;20063;-82
2023/05/27 04:57:56;;;;;;;13.57;4.28;;;11.10;99.90;;;;;;5073139;28;20105;-81
2023/05/27 05:00:53;;;;;;;11.35;3.20;;;11.20;99.90;;;;;;5090293;28;20526;-82
2023/05/27 05:03:50;;;;;;;17.83;3.65;;;11.30;99.90;;;;;;5074011;28;20092;-82
2023/05/27 05:06:37;;;;;;;19.63;3.88;;;11.30;99.90;;;;;;5073796;28;20151;-81
2023/05/27 05:09:24;;;;;;;13.52;4.05;;;11.30;99.90;;;;;;5076046;28;20530;-82
2023/05/27 05:12:10;;;;;;;16.58;4.97;;;11.40;99.90;;;;;;5089693;28;20052;-82
2023/05/27 05:14:56;;;;;;;15.65;3.97;;;11.40;99.90;;;;;;5092289;28;20067;-83
2023/05/27 05:17:42;;;;;;;19.98;4.07;;;11.50;99.90;;;;;;5090959;28;20064;-81
2023/05/27 05:20:28;;;;;;;17.63;3.50;;;11.60;99.90;;;;;;5090403;28;20048;-81
2023/05/27 05:23:15;;;;;;;13.32;4.00;;;11.70;99.90;;;;;;5091788;28;20093;-82
2023/05/27 05:26:06;;;;;;;16.48;4.25;;;11.70;99.90;;;;;;5089686;28;20055;-85
2023/05/27 05:28:52;;;;;;;17.98;3.80;;;11.80;99.90;;;;;;5090818;28;20052;-81
2023/05/27 05:31:38;;;;;;;24.95;4.15;;;11.90;99.90;;;;;;5090689;28;20058;-81
2023/05/27 05:34:24;;;;;;;16.83;3.70;;;11.90;99.90;;;;;;5073193;28;20091;-82
2023/05/27 05:39:46;;;;;;;21.88;4.57;;;12.00;99.90;;;;;;5168469;22;19950;-82
2023/05/27 05:42:32;;;;;;;18.73;3.53;;;12.10;99.90;;;;;;5051074;28;20048;-82
2023/05/27 05:45:18;;;;;;;18.20;4.80;;;12.10;99.90;;;;;;5052421;28;20445;-82
2023/05/27 05:48:04;;;;;;;15.93;3.63;;;12.10;99.90;;;;;;5069004;28;20116;-82
2023/05/27 05:50:50;;;;;;;15.07;3.58;;;12.30;99.90;;;;;;5051587;28;20127;-85
2023/05/27 05:53:37;;;;;;;15.05;4.18;;;12.40;99.90;;;;;;5053683;28;20481;-83
2023/05/27 05:56:23;;;;;;;13.85;3.28;;;12.50;99.90;;;;;;5068776;28;20051;-82
2023/05/27 05:59:10;;;;;;;21.60;3.83;;;12.40;99.90;;;;;;5051624;28;20524;-82
2023/05/27 06:01:56;;;;;;;16.00;4.40;;;12.60;99.90;;;;;;5052021;28;20141;-82
2023/05/27 06:04:42;;;;;;;14.80;4.45;;;12.60;99.90;;;;;;5052052;28;20044;-81
2023/05/27 06:07:29;;;;;;;16.15;3.92;;;12.70;99.90;;;;;;5051872;28;20078;-82
2023/05/27 06:10:16;;;;;;;14.63;3.75;;;12.70;99.90;;;;;;5038506;28;20048;-84
2023/05/27 06:13:04;;;;;;;13.00;4.05;;;12.90;99.90;;;;;;5051483;28;20132;-82
2023/05/27 06:15:50;;;;;;;20.40;5.45;;;13.10;99.90;;;;;;5037638;28;20052;-82
2023/05/27 06:18:36;;;;;;;17.52;4.78;;;13.20;99.90;;;;;;5068205;28;20115;-82
2023/05/27 06:21:22;;;;;;;13.75;4.00;;;13.20;99.90;;;;;;5067891;28;20055;-82
2023/05/27 06:24:08;;;;;;;14.93;3.53;;;13.40;99.90;;;;;;5052593;28;20047;-82
2023/05/27 06:26:54;;;;;;;17.20;4.53;;;13.60;99.90;;;;;;5052322;28;20047;-83
2023/05/27 06:29:40;;;;;;;21.70;4.03;;;13.80;99.90;;;;;;5052052;28;20137;-82
2023/05/27 06:32:26;;;;;;;15.63;4.72;;;14.10;99.90;;;;;;5070165;28;20064;-83
2023/05/27 06:35:13;;;;;;;15.57;4.00;;;14.20;99.90;;;;;;5051936;28;20551;-83
2023/05/27 06:37:59;;;;;;;15.43;3.38;;;14.20;99.90;;;;;;5068470;28;20056;-81
2023/05/27 06:40:45;;;;;;;19.63;3.85;;;14.20;99.90;;;;;;5037271;28;20045;-83
2023/05/27 06:43:31;;;;;;;13.43;3.67;;;14.40;99.90;;;;;;5051054;28;20063;-83
2023/05/27 06:46:17;;;;;;;17.77;4.65;;;14.50;99.90;;;;;;5050618;28;20105;-83
2023/05/27 06:49:03;;;;;;;12.82;3.85;;;14.40;99.90;;;;;;5050537;28;20052;-83
2023/05/27 06:51:49;;;;;;;18.92;4.40;;;14.40;99.90;;;;;;5051616;28;20052;-82
2023/05/27 06:54:36;;;;;;;21.05;3.97;;;14.50;99.90;;;;;;5069208;28;20118;-84
2023/05/27 06:57:22;;;;;;;14.25;3.83;;;14.50;99.90;;;;;;5052184;28;20053;-83
2023/05/27 07:00:09;;;;;;;17.95;4.68;;;14.50;99.90;;;;;;5050715;28;20056;-83
2023/05/27 07:02:56;;;;;;;18.70;4.78;;;14.50;99.90;;;;;;5038059;28;20132;-83
2023/05/27 07:05:42;;;;;;;19.80;4.32;;;14.70;99.90;;;;;;5050445;28;20053;-83
2023/05/27 07:08:28;;;;;;;16.77;3.80;;;14.80;99.90;;;;;;5069104;28;20106;-82
2023/05/27 07:11:15;;;;;;;12.15;4.05;;;15.10;99.90;;;;;;5050000;28;20492;-85
2023/05/27 07:14:02;;;;;;;19.33;4.95;;;15.30;99.90;;;;;;5050487;28;20062;-83
2023/05/27 07:16:48;;;;;;;16.40;4.07;;;15.20;99.90;;;;;;5054757;28;20060;-87
2023/05/27 07:19:35;;;;;;;15.63;3.70;;;15.10;99.90;;;;;;5050370;28;20087;-86
2023/05/27 07:22:21;;;;;;;21.63;4.43;;;15.10;99.90;;;;;;5037485;28;20059;-85
2023/05/27 07:25:08;;;;;;;12.45;3.75;;;15.30;99.90;;;;;;5050727;28;20070;-87
2023/05/27 07:27:54;;;;;;;13.18;3.50;;;15.30;99.90;;;;;;5069030;28;20385;-86
2023/05/27 07:30:40;;;;;;;14.25;4.10;;;15.30;99.90;;;;;;5052936;28;20044;-86
2023/05/27 07:33:26;;;;;;;17.05;4.95;;;15.10;99.90;;;;;;5053918;28;20060;-86
2023/05/27 07:36:13;;;;;;;14.63;4.10;;;15.40;99.90;;;;;;5072287;28;20044;-86
2023/05/27 07:38:59;;;;;;;13.88;4.05;;;15.60;99.90;;;;;;5071681;28;20467;-85
2023/05/27 07:41:45;;;;;;;19.73;5.18;;;15.80;99.90;;;;;;5053319;28;20045;-86
2023/05/27 07:44:31;;;;;;;20.45;4.38;;;15.90;99.90;;;;;;5054783;28;20059;-87
2023/05/27 07:47:17;;;;;;;14.00;4.20;;;15.90;99.90;;;;;;5054338;28;20167;-87
2023/05/27 07:50:04;;;;;;;15.30;4.15;;;16.00;99.90;;;;;;5053672;28;20051;-88
2023/05/27 07:52:50;;;;;;;15.07;4.00;;;16.20;99.90;;;;;;5054984;28;20488;-86
2023/05/27 07:55:36;;;;;;;23.35;6.57;;;16.20;99.90;;;;;;5053818;28;20057;-84
2023/05/27 07:58:22;;;;;;;20.17;4.78;;;16.30;99.90;;;;;;5053550;28;20063;-82
2023/05/27 08:01:09;;;;;;;16.13;4.22;;;16.30;99.90;;;;;;5054068;28;20048;-82
2023/05/27 08:03:55;;;;;;;20.77;4.22;;;16.60;99.90;;;;;;5072741;28;20522;-84
2023/05/27 08:06:42;;;;;;;16.77;4.13;;;16.70;99.90;;;;;;5040143;28;20060;-81
2023/05/27 08:09:28;;;;;;;13.68;4.07;;;16.80;99.70;;;;;;5040545;28;20131;-82
2023/05/27 08:12:15;;;;;;;15.27;4.07;;;17.10;99.90;;;;;;5053153;28;20074;-82
2023/05/27 08:15:01;;;;;;;16.05;3.60;;;17.20;99.60;;;;;;5052910;28;20095;-83
2023/05/27 08:17:47;;;;;;;21.20;5.13;;;17.40;99.30;;;;;;5053672;28;20052;-85
2023/05/27 08:20:33;;;;;;;17.30;3.60;;;17.60;99.30;;;;;;5039766;28;20488;-85
2023/05/27 08:23:19;;;;;;;17.50;3.95;;;17.50;98.70;;;;;;5053494;28;20071;-85
2023/05/27 08:26:05;;;;;;;16.77;4.30;;;17.70;98.90;;;;;;5054099;28;20113;-85
2023/05/27 08:28:52;;;;;;;20.55;4.60;;;17.70;98.90;;;;;;5054038;28;20452;-85
2023/05/27 08:31:38;;;;;;;15.65;4.25;;;17.80;98.80;;;;;;5072053;28;20088;-85
2023/05/27 08:34:25;;;;;;;15.18;4.85;;;17.50;98.40;;;;;;5053513;28;20063;-83
2023/05/27 08:37:11;;;;;;;14.18;3.70;;;17.70;98.60;;;;;;5053111;28;20425;-84
2023/05/27 08:39:58;;;;;;;15.85;3.70;;;18.10;98.50;;;;;;5040008;28;20520;-86
2023/05/27 08:42:45;;;;;;;16.08;3.78;;;17.90;98.20;;;;;;5052411;28;20056;-84
2023/05/27 08:45:33;;;;;;;16.58;4.90;;;17.90;98.20;;;;;;5070659;28;20526;-83
2023/05/27 08:48:19;;;;;;;14.60;4.38;;;18.10;97.80;;;;;;5053699;28;20059;-86
2023/05/27 08:51:06;;;;;;;15.60;4.10;;;18.40;97.40;;;;;;5053330;28;20052;-85
2023/05/27 08:53:52;;;;;;;23.70;5.50;;;18.70;97.20;;;;;;5039852;28;20048;-82
2023/05/27 08:56:40;;;;;;;9.30;3.63;;;19.00;96.90;;;;;;5052863;28;20651;-83
2023/05/27 08:59:27;;;;;;;16.15;4.13;;;19.20;96.90;;;;;;5039789;28;20063;-81
2023/05/27 09:02:14;;;;;;;13.30;3.58;;;19.50;96.70;;;;;;5070717;28;20362;-84
2023/05/27 09:05:00;;;;;;;18.13;4.15;;;19.50;96.50;;;;;;5071573;28;20092;-83
2023/05/27 09:07:47;;;;;;;16.52;4.43;;;19.60;96.20;;;;;;5070996;28;20048;-83
2023/05/27 09:10:40;;;;;;;17.88;5.75;;;19.90;96.10;;;;;;5051965;28;20174;-82
2023/05/27 09:13:30;;;;;;;14.98;4.20;;;19.80;94.60;;;;;;5052726;28;20056;-85
2023/05/27 09:16:21;;;;;;;15.65;4.28;;;19.80;95.30;;;;;;5052048;28;20048;-86
2023/05/27 09:19:18;;;;;;;17.75;4.07;;;20.10;94.80;;;;;;5051968;28;20053;-86
2023/05/27 09:22:04;;;;;;;14.65;3.95;;;20.10;95.30;;;;;;5038802;28;20079;-86
2023/05/27 09:24:54;;;;;;;24.83;5.13;;;20.20;95.10;;;;;;5052323;28;20044;-83
2023/05/27 09:27:43;;;;;;;17.88;4.97;;;20.30;94.80;;;;;;5051841;28;20049;-82
2023/05/27 09:30:30;;;;;;;16.48;4.38;;;20.50;94.90;;;;;;5051295;28;20044;-84
2023/05/27 09:33:22;;;;;;;18.02;3.58;;;20.60;95.00;;;;;;5052804;28;20055;-85
2023/05/27 09:36:11;;;;;;;22.40;4.07;;;20.90;94.00;;;;;;5052159;28;20609;-83
2023/05/27 09:38:58;;;;;;;14.05;4.22;;;20.80;94.00;;;;;;5051727;28;20048;-87
2023/05/27 09:41:58;;;;;;;16.00;3.55;;;20.70;94.10;;;;;;5039517;28;20091;-83
2023/05/27 09:44:48;;;;;;;16.77;3.85;;;21.00;93.60;;;;;;5070016;28;20086;-85
2023/05/27 09:47:34;;;;;;;22.25;4.65;;;21.20;94.10;;;;;;5052276;28;20593;-86
2023/05/27 09:50:21;;;;;;;21.63;4.85;;;21.30;93.60;;;;;;5051164;28;20056;-87
2023/05/27 09:53:08;;;;;;;13.30;3.35;;;21.30;93.40;;;;;;5050857;28;20055;-87
2023/05/27 09:55:56;;;;;;;21.23;4.70;;;21.40;93.30;;;;;;5069306;28;20131;-87
2023/05/27 09:58:43;;;;;;;17.75;3.90;;;21.40;92.90;;;;;;5051666;28;20060;-85
2023/05/27 10:01:29;;;;;;;20.65;4.07;;;21.20;92.80;;;;;;5052571;28;20135;-87
2023/05/27 10:04:16;;;;;;;14.95;3.80;;;21.00;92.90;;;;;;5051268;28;20519;-85
2023/05/27 10:07:03;;;;;;;14.68;4.60;;;21.10;92.90;;;;;;5050960;28;20051;-86
2023/05/27 10:09:49;;;;;;;18.95;4.38;;;21.30;92.70;;;;;;5038940;28;20045;-84
2023/05/27 10:12:37;;;;;;;12.25;3.50;;;21.40;93.00;;;;;;5038779;28;20577;-82
2023/05/27 10:15:33;;;;;;;18.38;4.78;;;21.50;92.40;;;;;;5069692;28;20056;-82
2023/05/27 10:18:26;;;;;;;19.40;4.10;;;21.30;92.40;;;;;;5038642;28;20095;-84
2023/05/27 10:21:19;;;;;;;13.48;4.35;;;21.30;92.20;;;;;;5051070;28;20056;-86
2023/05/27 10:24:10;;;;;;;16.23;4.05;;;21.30;92.60;;;;;;5038520;28;20048;-85
2023/05/27 10:27:04;;;;;;;19.08;4.70;;;21.80;92.30;;;;;;5050878;28;20056;-83
2023/05/27 10:29:58;;;;;;;13.85;3.90;;;21.80;92.40;;;;;;5051194;28;20057;-87
2023/05/27 10:32:48;;;;;;;15.95;3.67;;;22.00;92.30;;;;;;5051229;28;20091;-86
2023/05/27 10:35:42;;;;;;;19.23;4.38;;;22.20;91.80;;;;;;5051151;28;20064;-87
2023/05/27 10:38:29;;;;;;;15.88;4.18;;;22.40;91.30;;;;;;5037639;28;20143;-84
2023/05/27 10:41:16;;;;;;;16.90;5.22;;;22.30;91.50;;;;;;5038723;28;20049;-87
2023/05/27 10:44:02;;;;;;;42.03;6.47;;;22.40;91.10;;;;;;5050650;28;20056;-85
2023/05/27 10:46:48;;;;;;;14.88;4.03;;;22.30;90.80;;;;;;5051231;28;20110;-85
2023/05/27 10:49:37;;;;;;;12.38;4.07;;;22.40;91.00;;;;;;5051537;28;20569;-85
2023/05/27 10:52:26;;;;;;;15.98;3.90;;;22.50;90.70;;;;;;5051118;28;20428;-85
2023/05/27 10:55:13;;;;;;;16.27;4.63;;;22.50;90.10;;;;;;5051359;28;20045;-84
2023/05/27 10:58:02;;;;;;;16.15;3.95;;;22.50;90.70;;;;;;5069954;28;20416;-83
2023/05/27 11:00:51;;;;;;;17.67;4.63;;;23.00;91.10;;;;;;5051080;28;20080;-87
2023/05/27 11:03:46;;;;;;;18.30;3.97;;;23.00;90.60;;;;;;5077647;28;20055;-82
2023/05/27 11:06:33;;;;;;;15.15;4.18;;;23.00;90.10;;;;;;5069728;28;20114;-81
2023/05/27 11:09:21;;;;;;;18.42;4.40;;;22.80;89.90;;;;;;5066323;28;20127;-84
2023/05/27 11:12:08;;;;;;;17.55;4.40;;;22.80;90.40;;;;;;5063650;28;20082;-81
2023/05/27 11:14:55;;;;;;;20.35;4.97;;;23.00;90.10;;;;;;5041836;28;20542;-81
2023/05/27 11:17:41;;;;;;;15.30;4.30;;;23.00;89.60;;;;;;5055006;28;20048;-82
2023/05/27 11:20:37;;;;;;;18.35;3.72;;;23.00;89.20;;;;;;5041226;28;20510;-81
2023/05/27 11:23:34;;;;;;;19.20;4.45;;;23.00;87.60;;;;;;5055445;28;20400;-83
2023/05/27 11:26:22;;;;;;;13.23;4.35;;;23.00;89.10;;;;;;5041258;28;20052;-83
2023/05/27 11:29:08;;;;;;;11.77;3.75;;;23.10;89.60;;;;;;5040561;28;20105;-87
2023/05/27 11:31:54;;;;;;;17.67;3.45;;;23.10;89.30;;;;;;5054230;28;20106;-81
2023/05/27 11:34:40;;;;;;;13.02;4.20;;;23.10;88.70;;;;;;5054514;28;20090;-82
2023/05/27 11:37:31;;;;;;;10.18;3.83;;;23.20;88.20;;;;;;5041093;28;20053;-81
2023/05/27 11:40:18;;;;;;;14.02;4.05;;;23.30;87.10;;;;;;5053833;28;20052;-83
2023/05/27 11:43:04;;;;;;;15.68;3.78;;;23.50;87.80;;;;;;5054294;28;20568;-82
2023/05/27 11:45:50;;;;;;;13.30;3.55;;;23.60;87.30;;;;;;5073571;28;20048;-82
2023/05/27 11:48:36;;;;;;;9.63;4.00;;;23.70;87.10;;;;;;5054058;28;20060;-82
2023/05/27 11:51:29;;;;;;;21.15;4.35;;;23.80;86.20;;;;;;5058345;28;20069;-86
2023/05/27 11:54:34;;;;;;;16.17;4.00;;;23.60;86.60;;;;;;5054643;28;20048;-87
2023/05/27 11:57:20;;;;;;;14.98;3.78;;;23.60;85.60;;;;;;5071922;28;20146;-83
2023/05/27 12:00:07;;;;;;;20.38;4.97;;;23.80;86.90;;;;;;5055111;28;20132;-85
2023/05/27 12:02:54;;;;;;;17.10;3.63;;;24.00;85.60;;;;;;5073444;28;20098;-84
2023/05/27 12:05:40;;;;;;;16.35;3.70;;;23.90;84.40;;;;;;5055382;28;20052;-86
2023/05/27 12:08:26;;;;;;;14.68;4.40;;;23.90;85.60;;;;;;5059196;28;20056;-88
2023/05/27 12:11:13;;;;;;;16.08;4.03;;;23.80;84.70;;;;;;5041124;28;20049;-82
2023/05/27 12:13:59;;;;;;;15.35;3.75;;;23.90;83.20;;;;;;5072863;28;20075;-87
2023/05/27 12:16:45;;;;;;;16.75;4.55;;;23.60;83.50;;;;;;5040019;28;20061;-79
2023/05/27 12:19:34;;;;;;;22.50;4.70;;;23.50;84.20;;;;;;5072143;28;20497;-82
2023/05/27 12:22:21;;;;;;;16.00;4.63;;;23.50;85.00;;;;;;5041516;28;20095;-85
2023/05/27 12:25:07;;;;;;;16.25;3.70;;;23.60;84.20;;;;;;5054689;28;20048;-87
2023/05/27 12:27:53;;;;;;;17.42;4.50;;;24.00;84.20;;;;;;5041217;28;20084;-88
2023/05/27 12:30:39;;;;;;;16.55;4.93;;;24.30;84.90;;;;;;5053428;28;20483;-84
2023/05/27 12:33:26;;;;;;;13.18;3.95;;;24.40;84.70;;;;;;5053598;28;20056;-84
2023/05/27 12:36:12;;;;;;;14.35;3.70;;;24.50;82.20;;;;;;5072702;28;20129;-90
2023/05/27 12:38:58;;;;;;;14.30;3.85;;;24.70;82.10;;;;;;5036767;28;20049;-86
2023/05/27 12:41:44;;;;;;;14.13;3.70;;;24.70;80.90;;;;;;5050933;28;20079;-81
2023/05/27 12:44:30;;;;;;;18.45;4.38;;;24.90;82.00;;;;;;5049446;28;20061;-81
2023/05/27 12:47:16;;;;;;;15.45;3.80;;;24.80;81.10;;;;;;5049363;28;20061;-80
2023/05/27 12:50:04;;;;;;;18.63;4.22;;;24.80;80.40;;;;;;5045277;28;20049;-82
2023/05/27 12:52:51;;;;;;;13.88;3.95;;;25.10;81.30;;;;;;5024500;28;20049;-82
2023/05/27 12:55:38;;;;;;;12.20;3.55;;;25.40;80.10;;;;;;5049084;28;20466;-82
2023/05/27 12:58:24;;;;;;;15.75;4.32;;;25.40;79.40;;;;;;5049078;28;20052;-81
2023/05/27 13:01:10;;;;;;;18.63;4.18;;;25.00;77.50;;;;;;5044464;28;20064;-82
2023/05/27 13:03:56;;;;;;;15.18;4.43;;;24.30;79.20;;;;;;5052986;28;20135;-83
2023/05/27 13:06:43;;;;;;;15.40;4.95;;;24.50;79.00;;;;;;5051128;28;20561;-82
2023/05/27 13:09:30;;;;;;;21.48;5.18;;;24.80;78.80;;;;;;5042822;28;20061;-82
2023/05/27 13:12:16;;;;;;;21.45;5.07;;;24.20;78.80;;;;;;5042054;28;20055;-82
2023/05/27 13:15:03;;;;;;;14.85;4.10;;;24.20;78.80;;;;;;5044494;28;20056;-83
2023/05/27 13:17:51;;;;;;;14.85;4.47;;;24.30;79.10;;;;;;5053838;28;20076;-81
2023/05/27 13:20:37;;;;;;;16.15;4.10;;;24.80;79.00;;;;;;5055257;28;20048;-82
2023/05/27 13:23:23;;;;;;;12.07;3.72;;;25.00;79.60;;;;;;5050764;28;20501;-82
2023/05/27 13:26:10;;;;;;;17.15;4.18;;;25.00;78.20;;;;;;5041761;28;20048;-82
2023/05/27 13:28:56;;;;;;;19.67;4.78;;;25.30;77.70;;;;;;5053332;28;20056;-84
2023/05/27 13:31:45;;;;;;;14.55;4.50;;;25.40;77.80;;;;;;5038873;28;20071;-84
2023/05/27 13:34:31;;;;;;;13.38;3.70;;;25.50;77.60;;;;;;5071011;28;20503;-84
2023/05/27 13:37:18;;;;;;;16.17;4.55;;;25.50;77.50;;;;;;5052030;28;20058;-82
2023/05/27 13:40:05;;;;;;;19.10;4.18;;;25.60;77.50;;;;;;5050196;28;20114;-85
2023/05/27 13:42:51;;;;;;;15.35;4.47;;;25.90;75.90;;;;;;5050366;28;20052;-86
2023/05/27 13:45:37;;;;;;;15.98;4.22;;;25.90;76.20;;;;;;5049996;28;20060;-82
2023/05/27 13:48:24;;;;;;;12.68;3.97;;;26.30;73.90;;;;;;5032444;28;20057;-83
2023/05/27 13:51:10;;;;;;;23.38;5.50;;;25.60;74.10;;;;;;5031911;28;20459;-86
2023/05/27 13:53:57;;;;;;;20.20;4.60;;;25.40;74.50;;;;;;5032890;28;20049;-84
2023/05/27 13:56:43;;;;;;;21.25;5.32;;;25.70;75.10;;;;;;5049263;28;20501;-83
2023/05/27 13:59:30;;;;;;;15.57;4.22;;;25.40;74.60;;;;;;5018008;28;20063;-83
2023/05/27 14:02:16;;;;;;;15.40;4.43;;;25.00;75.80;;;;;;5049962;28;20055;-82
2023/05/27 14:05:03;;;;;;;16.65;4.97;;;25.60;75.00;;;;;;5032676;28;20072;-82
2023/05/27 14:07:49;;;;;;;14.57;4.30;;;25.70;74.80;;;;;;5031744;28;20148;-81
2023/05/27 14:10:36;;;;;;;21.50;5.53;;;26.20;74.60;;;;;;5047762;28;20055;-82
2023/05/27 14:13:22;;;;;;;17.30;4.88;;;26.70;73.60;;;;;;5035917;28;20045;-82
2023/05/27 14:16:08;;;;;;;19.58;4.88;;;27.20;72.60;;;;;;5049376;28;20053;-81
2023/05/27 14:18:55;;;;;;;15.70;4.10;;;27.50;71.30;;;;;;5031189;28;20060;-80
2023/05/27 14:21:41;;;;;;;19.23;4.35;;;27.60;70.30;;;;;;5032480;28;20049;-81
2023/05/27 14:24:27;;;;;;;17.20;4.55;;;27.70;70.20;;;;;;5049048;28;20494;-82